Enter the Airport ICAO Code

Search by Airport or City

Current Weather

GCRR | Lanzarote Airport

Lanzarote, Canary Islands, Spain

Last Update 10 Minutes Ago

Partly Cloudy Sky

Temperature of 20 ºC

Light Winds from Variable Directions

Temperature

20 ºC

Dew Point Temperature

16 ºC

Relative Humidity

77.88 %

Wind Direction

Variable

Wind Velocity

2 km/h (01 kt)

Gusts

None

Visibility

Greater than 10 Kilometers

Sea Level Pressure

1014 hPa (Hectopascals)

Layers of Clouds

5% to 30% of Sky Covered from 762 mts (2500 ft) Above Ground Level.

30% to 60% of Sky Covered from 1463 mts (4800 ft) Above Ground Level.

METAR GCRR 022100Z VRB01KT 9999 FEW025 SCT048 20/16 Q1014

Weather Forecast

GCRR | Lanzarote Airport

Lanzarote, Canary Islands, Spain

Forecast valid for the next 24 Hours

From now on it is expected:

Sky with Few Clouds

Light Winds from NorthWest

Maximum Temperature

22 ºC in 17 Hours

Minimum Temperature

16 ºC in 10 Hours

TAF GCRR 022000Z 0221/0321 31004KT 9999 FEW025 TX22/0314Z TN16/0307Z